sensor_id;sensor_type;location;lat;lon;timestamp;noise_LAeq;noise_LA_min;noise_LA_max;noise_LA01;noise_LA95
69619;Laerm;57653;51.434;5.984;2024-02-26T00:00:01;31.63;30.07;39.61;;
69619;Laerm;57653;51.434;5.984;2024-02-26T00:00:11;39.71;29.95;57.31;;
69619;Laerm;57653;51.434;5.984;2024-02-26T00:00:22;38.38;30.56;56.07;;
69619;Laerm;57653;51.434;5.984;2024-02-26T00:00:33;34.33;30.11;49.74;;
69619;Laerm;57653;51.434;5.984;2024-02-26T00:00:44;31.86;29.66;40.30;;
69619;Laerm;57653;51.434;5.984;2024-02-26T00:00:56;32.16;30.06;45.54;;
69619;Laerm;57653;51.434;5.984;2024-02-26T00:01:07;31.56;29.36;40.95;;
69619;Laerm;57653;51.434;5.984;2024-02-26T00:01:17;32.25;29.83;46.29;;
69619;Laerm;57653;51.434;5.984;2024-02-26T00:01:27;33.01;29.86;43.83;;
69619;Laerm;57653;51.434;5.984;2024-02-26T00:01:37;32.84;29.55;47.79;;
69619;Laerm;57653;51.434;5.984;2024-02-26T00:01:48;31.75;29.78;45.98;;
69619;Laerm;57653;51.434;5.984;2024-02-26T00:01:58;31.76;30.01;44.48;;
69619;Laerm;57653;51.434;5.984;2024-02-26T00:02:08;33.79;30.13;45.06;;
69619;Laerm;57653;51.434;5.984;2024-02-26T00:02:18;35.65;29.80;51.40;;
69619;Laerm;57653;51.434;5.984;2024-02-26T00:02:29;31.66;29.86;40.65;;
69619;Laerm;57653;51.434;5.984;2024-02-26T00:02:39;32.83;29.63;49.19;;
69619;Laerm;57653;51.434;5.984;2024-02-26T00:02:50;31.20;29.23;42.21;;
69619;Laerm;57653;51.434;5.984;2024-02-26T00:03:00;31.36;29.44;44.79;;
69619;Laerm;57653;51.434;5.984;2024-02-26T00:03:11;31.89;29.74;45.88;;
69619;Laerm;57653;51.434;5.984;2024-02-26T00:03:21;31.22;29.44;42.33;;
69619;Laerm;57653;51.434;5.984;2024-02-26T00:03:31;31.45;29.65;41.34;;
69619;Laerm;57653;51.434;5.984;2024-02-26T00:03:43;31.33;29.60;45.80;;
69619;Laerm;57653;51.434;5.984;2024-02-26T00:03:55;30.75;29.62;39.18;;
69619;Laerm;57653;51.434;5.984;2024-02-26T00:04:09;30.76;29.57;39.11;;
69619;Laerm;57653;51.434;5.984;2024-02-26T00:04:20;30.51;29.25;31.66;;
69619;Laerm;57653;51.434;5.984;2024-02-26T00:04:31;31.28;29.19;43.63;;
69619;Laerm;57653;51.434;5.984;2024-02-26T00:04:42;30.69;29.27;34.04;;
69619;Laerm;57653;51.434;5.984;2024-02-26T00:04:52;30.56;29.47;31.83;;
69619;Laerm;57653;51.434;5.984;2024-02-26T00:05:02;30.55;29.09;34.80;;
69619;Laerm;57653;51.434;5.984;2024-02-26T00:05:13;31.37;29.52;44.04;;
69619;Laerm;57653;51.434;5.984;2024-02-26T00:05:23;31.05;29.30;37.25;;
69619;Laerm;57653;51.434;5.984;2024-02-26T00:05:33;31.65;29.46;42.57;;
69619;Laerm;57653;51.434;5.984;2024-02-26T00:05:43;31.20;29.82;43.92;;
69619;Laerm;57653;51.434;5.984;2024-02-26T00:05:54;33.19;30.21;44.18;;
69619;Laerm;57653;51.434;5.984;2024-02-26T00:06:06;31.11;29.62;32.96;;
69619;Laerm;57653;51.434;5.984;2024-02-26T00:06:16;30.80;29.60;32.91;;
69619;Laerm;57653;51.434;5.984;2024-02-26T00:06:28;30.79;29.79;31.86;;
69619;Laerm;57653;51.434;5.984;2024-02-26T00:06:39;30.75;29.68;32.03;;
69619;Laerm;57653;51.434;5.984;2024-02-26T00:06:52;30.57;29.39;31.86;;
69619;Laerm;57653;51.434;5.984;2024-02-26T00:07:04;31.08;29.41;39.07;;
69619;Laerm;57653;51.434;5.984;2024-02-26T00:07:14;30.84;29.57;32.43;;
69619;Laerm;57653;51.434;5.984;2024-02-26T00:07:24;30.65;29.41;31.82;;
69619;Laerm;57653;51.434;5.984;2024-02-26T00:07:35;30.63;29.44;31.44;;
69619;Laerm;57653;51.434;5.984;2024-02-26T00:07:45;30.66;29.61;32.45;;
69619;Laerm;57653;51.434;5.984;2024-02-26T00:07:56;30.67;29.51;32.83;;
69619;Laerm;57653;51.434;5.984;2024-02-26T00:08:07;30.90;29.72;32.91;;
69619;Laerm;57653;51.434;5.984;2024-02-26T00:08:17;30.78;29.46;31.97;;
69619;Laerm;57653;51.434;5.984;2024-02-26T00:08:27;30.73;29.49;32.01;;
69619;Laerm;57653;51.434;5.984;2024-02-26T00:08:38;30.74;29.38;31.92;;
69619;Laerm;57653;51.434;5.984;2024-02-26T00:08:48;30.79;29.56;36.78;;
69619;Laerm;57653;51.434;5.984;2024-02-26T00:08:58;30.70;29.41;32.27;;
69619;Laerm;57653;51.434;5.984;2024-02-26T00:09:08;30.86;29.62;35.86;;
69619;Laerm;57653;51.434;5.984;2024-02-26T00:09:19;31.28;29.58;40.25;;
69619;Laerm;57653;51.434;5.984;2024-02-26T00:09:29;32.13;29.55;48.92;;
69619;Laerm;57653;51.434;5.984;2024-02-26T00:09:40;30.64;29.38;37.95;;
69619;Laerm;57653;51.434;5.984;2024-02-26T00:09:50;31.00;29.39;42.47;;
69619;Laerm;57653;51.434;5.984;2024-02-26T00:10:00;30.93;29.47;40.20;;
69619;Laerm;57653;51.434;5.984;2024-02-26T00:10:11;30.56;29.64;34.77;;
69619;Laerm;57653;51.434;5.984;2024-02-26T00:10:21;30.63;29.32;40.16;;
69619;Laerm;57653;51.434;5.984;2024-02-26T00:10:31;30.59;29.24;31.81;;
69619;Laerm;57653;51.434;5.984;2024-02-26T00:10:42;30.51;28.90;32.82;;
69619;Laerm;57653;51.434;5.984;2024-02-26T00:10:52;30.60;28.97;33.85;;
69619;Laerm;57653;51.434;5.984;2024-02-26T00:11:03;30.54;29.53;31.65;;
69619;Laerm;57653;51.434;5.984;2024-02-26T00:11:13;30.75;29.30;36.67;;
69619;Laerm;57653;51.434;5.984;2024-02-26T00:11:23;30.51;29.49;33.15;;
69619;Laerm;57653;51.434;5.984;2024-02-26T00:11:35;30.48;29.32;31.43;;
69619;Laerm;57653;51.434;5.984;2024-02-26T00:11:45;30.48;29.31;35.90;;
69619;Laerm;57653;51.434;5.984;2024-02-26T00:11:55;30.44;29.54;31.37;;
69619;Laerm;57653;51.434;5.984;2024-02-26T00:12:06;30.47;29.43;31.55;;
69619;Laerm;57653;51.434;5.984;2024-02-26T00:12:16;30.46;29.22;31.51;;
69619;Laerm;57653;51.434;5.984;2024-02-26T00:12:26;30.48;29.40;31.81;;
69619;Laerm;57653;51.434;5.984;2024-02-26T00:12:37;30.50;29.06;31.76;;
69619;Laerm;57653;51.434;5.984;2024-02-26T00:12:49;30.48;29.32;31.86;;
69619;Laerm;57653;51.434;5.984;2024-02-26T00:12:59;30.84;29.33;39.07;;
69619;Laerm;57653;51.434;5.984;2024-02-26T00:13:09;31.92;29.18;43.38;;
69619;Laerm;57653;51.434;5.984;2024-02-26T00:13:19;30.53;29.45;36.18;;
69619;Laerm;57653;51.434;5.984;2024-02-26T00:13:30;30.41;29.20;31.42;;
69619;Laerm;57653;51.434;5.984;2024-02-26T00:13:40;30.90;29.55;42.91;;
69619;Laerm;57653;51.434;5.984;2024-02-26T00:13:51;30.44;29.44;32.03;;
69619;Laerm;57653;51.434;5.984;2024-02-26T00:14:01;30.49;29.16;31.58;;
69619;Laerm;57653;51.434;5.984;2024-02-26T00:14:11;30.46;29.20;31.41;;
69619;Laerm;57653;51.434;5.984;2024-02-26T00:14:21;30.46;29.34;31.25;;
69619;Laerm;57653;51.434;5.984;2024-02-26T00:14:32;30.43;29.35;32.50;;
69619;Laerm;57653;51.434;5.984;2024-02-26T00:14:42;30.36;29.06;31.41;;
69619;Laerm;57653;51.434;5.984;2024-02-26T00:14:52;30.43;29.16;34.00;;
69619;Laerm;57653;51.434;5.984;2024-02-26T00:15:03;30.51;29.49;35.46;;
69619;Laerm;57653;51.434;5.984;2024-02-26T00:15:14;30.44;29.48;32.58;;
69619;Laerm;57653;51.434;5.984;2024-02-26T00:15:24;30.63;29.66;37.61;;
69619;Laerm;57653;51.434;5.984;2024-02-26T00:15:35;30.54;29.46;39.12;;
69619;Laerm;57653;51.434;5.984;2024-02-26T00:15:45;30.43;29.41;32.08;;
69619;Laerm;57653;51.434;5.984;2024-02-26T00:15:55;30.42;29.24;32.20;;
69619;Laerm;57653;51.434;5.984;2024-02-26T00:16:06;30.42;29.15;32.21;;
69619;Laerm;57653;51.434;5.984;2024-02-26T00:16:17;30.52;29.51;36.13;;
69619;Laerm;57653;51.434;5.984;2024-02-26T00:16:27;30.49;29.19;34.27;;
69619;Laerm;57653;51.434;5.984;2024-02-26T00:16:39;30.43;29.47;31.45;;
69619;Laerm;57653;51.434;5.984;2024-02-26T00:16:50;30.77;29.18;42.81;;
69619;Laerm;57653;51.434;5.984;2024-02-26T00:17:00;31.34;29.64;41.47;;
69619;Laerm;57653;51.434;5.984;2024-02-26T00:17:11;30.93;29.50;39.89;;
69619;Laerm;57653;51.434;5.984;2024-02-26T00:17:21;30.83;29.49;39.63;;
69619;Laerm;57653;51.434;5.984;2024-02-26T00:17:31;30.56;29.48;31.85;;
69619;Laerm;57653;51.434;5.984;2024-02-26T00:17:41;31.18;29.61;45.41;;
69619;Laerm;57653;51.434;5.984;2024-02-26T00:17:52;30.73;29.66;32.06;;
69619;Laerm;57653;51.434;5.984;2024-02-26T00:18:02;31.51;29.61;36.88;;
69619;Laerm;57653;51.434;5.984;2024-02-26T00:18:12;31.08;29.67;37.26;;
69619;Laerm;57653;51.434;5.984;2024-02-26T00:18:22;30.66;29.36;31.80;;
69619;Laerm;57653;51.434;5.984;2024-02-26T00:18:33;30.74;29.52;32.15;;
69619;Laerm;57653;51.434;5.984;2024-02-26T00:18:43;30.60;29.53;31.60;;
69619;Laerm;57653;51.434;5.984;2024-02-26T00:18:53;30.65;29.66;32.06;;
69619;Laerm;57653;51.434;5.984;2024-02-26T00:19:03;30.67;29.41;34.01;;
69619;Laerm;57653;51.434;5.984;2024-02-26T00:19:14;30.55;29.20;32.11;;
69619;Laerm;57653;51.434;5.984;2024-02-26T00:19:24;30.43;29.27;35.30;;
69619;Laerm;57653;51.434;5.984;2024-02-26T00:19:35;30.35;29.16;31.93;;
69619;Laerm;57653;51.434;5.984;2024-02-26T00:19:45;30.96;29.19;41.22;;
69619;Laerm;57653;51.434;5.984;2024-02-26T00:19:55;30.42;29.44;31.64;;
69619;Laerm;57653;51.434;5.984;2024-02-26T00:20:05;30.41;29.33;31.40;;
69619;Laerm;57653;51.434;5.984;2024-02-26T00:20:21;30.47;29.17;31.64;;
69619;Laerm;57653;51.434;5.984;2024-02-26T00:20:31;31.35;29.49;42.70;;
69619;Laerm;57653;51.434;5.984;2024-02-26T00:20:41;30.66;29.49;35.91;;
69619;Laerm;57653;51.434;5.984;2024-02-26T00:20:53;30.50;29.61;31.77;;
69619;Laerm;57653;51.434;5.984;2024-02-26T00:21:03;30.45;29.47;31.96;;
69619;Laerm;57653;51.434;5.984;2024-02-26T00:21:14;30.81;29.22;39.46;;
69619;Laerm;57653;51.434;5.984;2024-02-26T00:21:24;30.98;29.36;39.53;;
69619;Laerm;57653;51.434;5.984;2024-02-26T00:21:34;30.45;29.44;31.64;;
69619;Laerm;57653;51.434;5.984;2024-02-26T00:21:45;30.53;29.34;34.65;;
69619;Laerm;57653;51.434;5.984;2024-02-26T00:21:55;30.60;29.45;39.51;;
69619;Laerm;57653;51.434;5.984;2024-02-26T00:22:05;30.49;29.54;31.65;;
69619;Laerm;57653;51.434;5.984;2024-02-26T00:22:16;30.48;29.40;33.40;;
69619;Laerm;57653;51.434;5.984;2024-02-26T00:22:26;30.77;29.45;38.73;;
69619;Laerm;57653;51.434;5.984;2024-02-26T00:22:36;30.55;29.50;36.11;;
69619;Laerm;57653;51.434;5.984;2024-02-26T00:22:47;30.54;29.55;35.63;;
69619;Laerm;57653;51.434;5.984;2024-02-26T00:22:57;30.71;29.40;34.94;;
69619;Laerm;57653;51.434;5.984;2024-02-26T00:23:07;31.25;29.53;44.25;;
69619;Laerm;57653;51.434;5.984;2024-02-26T00:23:17;31.14;29.43;44.48;;
69619;Laerm;57653;51.434;5.984;2024-02-26T00:23:28;30.93;29.66;35.93;;
69619;Laerm;57653;51.434;5.984;2024-02-26T00:23:38;32.06;29.83;44.21;;
69619;Laerm;57653;51.434;5.984;2024-02-26T00:23:52;31.10;29.69;41.85;;
69619;Laerm;57653;51.434;5.984;2024-02-26T00:24:02;30.51;29.40;31.92;;
69619;Laerm;57653;51.434;5.984;2024-02-26T00:24:13;31.04;29.51;38.15;;
69619;Laerm;57653;51.434;5.984;2024-02-26T00:24:23;31.51;29.58;43.80;;
69619;Laerm;57653;51.434;5.984;2024-02-26T00:24:33;30.91;29.14;42.78;;
69619;Laerm;57653;51.434;5.984;2024-02-26T00:24:43;31.13;29.67;43.59;;
69619;Laerm;57653;51.434;5.984;2024-02-26T00:24:54;31.54;29.40;43.37;;
69619;Laerm;57653;51.434;5.984;2024-02-26T00:25:04;30.76;29.45;38.53;;
69619;Laerm;57653;51.434;5.984;2024-02-26T00:25:14;30.63;29.39;32.32;;
69619;Laerm;57653;51.434;5.984;2024-02-26T00:25:25;31.06;29.54;44.66;;
69619;Laerm;57653;51.434;5.984;2024-02-26T00:25:35;30.64;29.25;35.81;;
69619;Laerm;57653;51.434;5.984;2024-02-26T00:25:46;31.00;29.60;42.59;;
69619;Laerm;57653;51.434;5.984;2024-02-26T00:25:57;30.55;28.97;33.12;;
69619;Laerm;57653;51.434;5.984;2024-02-26T00:26:07;30.60;29.04;34.21;;
69619;Laerm;57653;51.434;5.984;2024-02-26T00:26:18;30.84;29.05;41.27;;
69619;Laerm;57653;51.434;5.984;2024-02-26T00:26:28;31.25;29.45;45.54;;
69619;Laerm;57653;51.434;5.984;2024-02-26T00:26:38;30.67;29.37;36.30;;
69619;Laerm;57653;51.434;5.984;2024-02-26T00:26:48;30.52;29.39;34.89;;
69619;Laerm;57653;51.434;5.984;2024-02-26T00:27:03;30.46;29.42;32.44;;
69619;Laerm;57653;51.434;5.984;2024-02-26T00:27:13;30.52;29.32;35.84;;
69619;Laerm;57653;51.434;5.984;2024-02-26T00:27:23;30.55;29.37;34.61;;
69619;Laerm;57653;51.434;5.984;2024-02-26T00:27:34;30.81;29.42;40.45;;
69619;Laerm;57653;51.434;5.984;2024-02-26T00:27:44;30.56;29.42;38.13;;
69619;Laerm;57653;51.434;5.984;2024-02-26T00:27:54;30.65;29.30;39.46;;
69619;Laerm;57653;51.434;5.984;2024-02-26T00:28:04;30.47;29.56;31.90;;
69619;Laerm;57653;51.434;5.984;2024-02-26T00:28:15;30.49;29.50;31.56;;
69619;Laerm;57653;51.434;5.984;2024-02-26T00:28:25;30.65;29.45;38.42;;
69619;Laerm;57653;51.434;5.984;2024-02-26T00:28:37;31.26;29.10;47.64;;
69619;Laerm;57653;51.434;5.984;2024-02-26T00:28:47;31.16;29.76;43.49;;
69619;Laerm;57653;51.434;5.984;2024-02-26T00:28:57;33.59;29.97;49.03;;
69619;Laerm;57653;51.434;5.984;2024-02-26T00:29:08;32.38;30.05;45.72;;
69619;Laerm;57653;51.434;5.984;2024-02-26T00:29:18;31.14;30.18;37.01;;
69619;Laerm;57653;51.434;5.984;2024-02-26T00:29:29;30.81;29.73;33.16;;
69619;Laerm;57653;51.434;5.984;2024-02-26T00:29:39;30.92;29.77;38.06;;
69619;Laerm;57653;51.434;5.984;2024-02-26T00:29:49;30.92;29.79;39.97;;
69619;Laerm;57653;51.434;5.984;2024-02-26T00:29:59;30.82;29.73;32.60;;
69619;Laerm;57653;51.434;5.984;2024-02-26T00:30:10;31.05;29.92;37.00;;
69619;Laerm;57653;51.434;5.984;2024-02-26T00:30:20;30.78;29.77;33.11;;
69619;Laerm;57653;51.434;5.984;2024-02-26T00:30:30;31.66;29.75;43.34;;
69619;Laerm;57653;51.434;5.984;2024-02-26T00:30:40;33.31;29.57;50.03;;
69619;Laerm;57653;51.434;5.984;2024-02-26T00:30:51;33.78;29.80;49.06;;
69619;Laerm;57653;51.434;5.984;2024-02-26T00:31:05;33.88;29.53;51.18;;
69619;Laerm;57653;51.434;5.984;2024-02-26T00:31:16;37.06;29.90;52.77;;
69619;Laerm;57653;51.434;5.984;2024-02-26T00:31:26;33.12;29.93;47.40;;
69619;Laerm;57653;51.434;5.984;2024-02-26T00:31:37;31.15;29.84;38.62;;
69619;Laerm;57653;51.434;5.984;2024-02-26T00:31:48;31.03;29.69;33.01;;
69619;Laerm;57653;51.434;5.984;2024-02-26T00:31:58;31.17;29.97;38.38;;
69619;Laerm;57653;51.434;5.984;2024-02-26T00:32:09;31.54;30.07;40.87;;
69619;Laerm;57653;51.434;5.984;2024-02-26T00:32:19;31.99;29.57;49.59;;
69619;Laerm;57653;51.434;5.984;2024-02-26T00:32:29;31.73;29.60;46.92;;
69619;Laerm;57653;51.434;5.984;2024-02-26T00:32:39;31.61;29.66;47.11;;
69619;Laerm;57653;51.434;5.984;2024-02-26T00:32:49;30.82;29.58;35.19;;
69619;Laerm;57653;51.434;5.984;2024-02-26T00:33:00;31.34;29.64;41.30;;
69619;Laerm;57653;51.434;5.984;2024-02-26T00:33:10;31.03;29.53;40.15;;
69619;Laerm;57653;51.434;5.984;2024-02-26T00:33:20;32.17;29.59;46.33;;
69619;Laerm;57653;51.434;5.984;2024-02-26T00:33:30;32.94;29.61;50.78;;
69619;Laerm;57653;51.434;5.984;2024-02-26T00:33:41;30.83;29.43;33.16;;
69619;Laerm;57653;51.434;5.984;2024-02-26T00:33:51;31.05;29.34;43.41;;
69619;Laerm;57653;51.434;5.984;2024-02-26T00:34:01;32.11;29.79;44.57;;
69619;Laerm;57653;51.434;5.984;2024-02-26T00:34:12;31.80;29.68;43.47;;
69619;Laerm;57653;51.434;5.984;2024-02-26T00:34:22;33.35;29.78;44.41;;
69619;Laerm;57653;51.434;5.984;2024-02-26T00:34:32;32.03;29.93;42.48;;
69619;Laerm;57653;51.434;5.984;2024-02-26T00:34:42;32.29;29.88;43.74;;
69619;Laerm;57653;51.434;5.984;2024-02-26T00:34:53;30.85;29.64;36.88;;
69619;Laerm;57653;51.434;5.984;2024-02-26T00:35:03;31.22;29.77;40.69;;
69619;Laerm;57653;51.434;5.984;2024-02-26T00:35:13;30.87;29.60;38.93;;
69619;Laerm;57653;51.434;5.984;2024-02-26T00:35:24;30.66;29.40;34.98;;
69619;Laerm;57653;51.434;5.984;2024-02-26T00:35:34;31.17;29.45;41.49;;
69619;Laerm;57653;51.434;5.984;2024-02-26T00:35:44;31.88;29.50;47.03;;
69619;Laerm;57653;51.434;5.984;2024-02-26T00:35:55;31.35;29.51;43.23;;
69619;Laerm;57653;51.434;5.984;2024-02-26T00:36:05;31.22;29.76;43.02;;
69619;Laerm;57653;51.434;5.984;2024-02-26T00:36:16;30.82;29.74;35.87;;
69619;Laerm;57653;51.434;5.984;2024-02-26T00:36:26;31.06;29.75;39.11;;
69619;Laerm;57653;51.434;5.984;2024-02-26T00:36:36;31.92;29.85;43.52;;
69619;Laerm;57653;51.434;5.984;2024-02-26T00:36:46;31.05;29.27;38.44;;
69619;Laerm;57653;51.434;5.984;2024-02-26T00:36:57;30.84;29.53;37.97;;
69619;Laerm;57653;51.434;5.984;2024-02-26T00:37:07;33.68;29.86;47.74;;
69619;Laerm;57653;51.434;5.984;2024-02-26T00:37:17;31.12;30.20;33.26;;
69619;Laerm;57653;51.434;5.984;2024-02-26T00:37:27;31.29;29.63;38.57;;
69619;Laerm;57653;51.434;5.984;2024-02-26T00:37:37;32.04;29.57;46.18;;
69619;Laerm;57653;51.434;5.984;2024-02-26T00:37:48;33.12;29.69;48.66;;
69619;Laerm;57653;51.434;5.984;2024-02-26T00:37:58;32.77;29.85;46.19;;
69619;Laerm;57653;51.434;5.984;2024-02-26T00:38:09;33.93;29.74;46.92;;
69619;Laerm;57653;51.434;5.984;2024-02-26T00:38:19;31.46;29.93;44.92;;
69619;Laerm;57653;51.434;5.984;2024-02-26T00:38:30;30.88;29.54;37.90;;
69619;Laerm;57653;51.434;5.984;2024-02-26T00:38:40;31.66;29.56;43.39;;
69619;Laerm;57653;51.434;5.984;2024-02-26T00:38:52;30.87;29.65;38.40;;
69619;Laerm;57653;51.434;5.984;2024-02-26T00:39:03;34.66;29.70;53.51;;
69619;Laerm;57653;51.434;5.984;2024-02-26T00:39:13;34.69;29.38;55.66;;
69619;Laerm;57653;51.434;5.984;2024-02-26T00:39:23;41.07;29.83;57.25;;
69619;Laerm;57653;51.434;5.984;2024-02-26T00:39:34;38.46;30.30;54.29;;
69619;Laerm;57653;51.434;5.984;2024-02-26T00:39:44;39.28;30.69;56.52;;
69619;Laerm;57653;51.434;5.984;2024-02-26T00:39:56;41.04;30.52;55.71;;
69619;Laerm;57653;51.434;5.984;2024-02-26T00:40:06;39.13;31.25;55.28;;
69619;Laerm;57653;51.434;5.984;2024-02-26T00:40:17;32.79;30.34;48.03;;
69619;Laerm;57653;51.434;5.984;2024-02-26T00:40:27;31.54;29.79;40.40;;
69619;Laerm;57653;51.434;5.984;2024-02-26T00:40:38;30.63;29.57;32.61;;
69619;Laerm;57653;51.434;5.984;2024-02-26T00:40:48;30.75;29.45;37.17;;
69619;Laerm;57653;51.434;5.984;2024-02-26T00:40:58;34.45;29.75;50.24;;
69619;Laerm;57653;51.434;5.984;2024-02-26T00:41:08;33.62;29.78;50.25;;
69619;Laerm;57653;51.434;5.984;2024-02-26T00:41:19;32.49;29.58;45.58;;
69619;Laerm;57653;51.434;5.984;2024-02-26T00:41:30;31.64;29.04;42.19;;
69619;Laerm;57653;51.434;5.984;2024-02-26T00:41:40;33.59;29.68;47.06;;
69619;Laerm;57653;51.434;5.984;2024-02-26T00:41:50;31.45;29.70;37.74;;
69619;Laerm;57653;51.434;5.984;2024-02-26T00:42:01;34.15;29.83;50.75;;
69619;Laerm;57653;51.434;5.984;2024-02-26T00:42:12;36.93;29.69;56.31;;
69619;Laerm;57653;51.434;5.984;2024-02-26T00:42:23;32.08;29.98;42.51;;
69619;Laerm;57653;51.434;5.984;2024-02-26T00:42:33;32.94;29.91;45.81;;
69619;Laerm;57653;51.434;5.984;2024-02-26T00:42:43;33.50;29.77;47.51;;
69619;Laerm;57653;51.434;5.984;2024-02-26T00:42:55;32.12;29.76;45.06;;
69619;Laerm;57653;51.434;5.984;2024-02-26T00:43:06;31.13;29.71;41.75;;
69619;Laerm;57653;51.434;5.984;2024-02-26T00:43:16;30.68;29.59;31.90;;
69619;Laerm;57653;51.434;5.984;2024-02-26T00:43:27;31.20;29.71;45.97;;
69619;Laerm;57653;51.434;5.984;2024-02-26T00:43:37;30.81;29.68;36.58;;
69619;Laerm;57653;51.434;5.984;2024-02-26T00:43:49;31.21;29.83;42.72;;
69619;Laerm;57653;51.434;5.984;2024-02-26T00:43:59;30.88;29.76;36.80;;
69619;Laerm;57653;51.434;5.984;2024-02-26T00:44:10;30.95;29.81;39.16;;
69619;Laerm;57653;51.434;5.984;2024-02-26T00:44:21;31.04;29.57;43.69;;
69619;Laerm;57653;51.434;5.984;2024-02-26T00:44:31;30.70;29.48;34.13;;
69619;Laerm;57653;51.434;5.984;2024-02-26T00:44:42;31.00;29.31;39.95;;
69619;Laerm;57653;51.434;5.984;2024-02-26T00:44:52;30.69;29.56;32.54;;
69619;Laerm;57653;51.434;5.984;2024-02-26T00:45:02;30.93;29.64;37.68;;
69619;Laerm;57653;51.434;5.984;2024-02-26T00:45:13;31.04;29.73;40.45;;
69619;Laerm;57653;51.434;5.984;2024-02-26T00:45:23;31.22;29.99;37.32;;
69619;Laerm;57653;51.434;5.984;2024-02-26T00:45:33;33.87;29.86;49.41;;
69619;Laerm;57653;51.434;5.984;2024-02-26T00:45:44;35.74;29.96;50.86;;
69619;Laerm;57653;51.434;5.984;2024-02-26T00:45:54;32.13;29.72;43.72;;
69619;Laerm;57653;51.434;5.984;2024-02-26T00:46:04;34.14;29.83;50.53;;
69619;Laerm;57653;51.434;5.984;2024-02-26T00:46:14;30.91;29.72;36.04;;
69619;Laerm;57653;51.434;5.984;2024-02-26T00:46:25;34.83;29.66;52.65;;
69619;Laerm;57653;51.434;5.984;2024-02-26T00:46:35;34.91;29.65;47.95;;
69619;Laerm;57653;51.434;5.984;2024-02-26T00:46:45;32.19;29.30;41.60;;
69619;Laerm;57653;51.434;5.984;2024-02-26T00:46:56;35.68;29.38;51.63;;
69619;Laerm;57653;51.434;5.984;2024-02-26T00:47:06;31.33;29.57;44.61;;
69619;Laerm;57653;51.434;5.984;2024-02-26T00:47:16;30.78;29.47;36.70;;
69619;Laerm;57653;51.434;5.984;2024-02-26T00:47:26;30.69;29.60;34.23;;
69619;Laerm;57653;51.434;5.984;2024-02-26T00:47:36;31.18;29.36;39.66;;
69619;Laerm;57653;51.434;5.984;2024-02-26T00:47:47;31.41;29.41;43.24;;
69619;Laerm;57653;51.434;5.984;2024-02-26T00:47:59;31.78;29.66;46.38;;
69619;Laerm;57653;51.434;5.984;2024-02-26T00:48:11;30.95;29.64;40.06;;
69619;Laerm;57653;51.434;5.984;2024-02-26T00:48:23;31.48;29.63;47.69;;
69619;Laerm;57653;51.434;5.984;2024-02-26T00:48:35;32.15;30.14;42.24;;
69619;Laerm;57653;51.434;5.984;2024-02-26T00:48:47;33.55;30.28;44.01;;
69619;Laerm;57653;51.434;5.984;2024-02-26T00:48:57;36.58;30.26;51.58;;
69619;Laerm;57653;51.434;5.984;2024-02-26T00:49:07;33.31;30.01;45.09;;
69619;Laerm;57653;51.434;5.984;2024-02-26T00:49:17;32.23;29.71;49.44;;
69619;Laerm;57653;51.434;5.984;2024-02-26T00:49:28;31.47;29.84;42.30;;
69619;Laerm;57653;51.434;5.984;2024-02-26T00:49:38;32.69;29.62;46.70;;
69619;Laerm;57653;51.434;5.984;2024-02-26T00:49:48;31.84;29.65;45.69;;
69619;Laerm;57653;51.434;5.984;2024-02-26T00:49:58;33.10;29.47;44.72;;
69619;Laerm;57653;51.434;5.984;2024-02-26T00:50:09;31.63;29.52;42.67;;
69619;Laerm;57653;51.434;5.984;2024-02-26T00:50:19;31.50;29.59;46.14;;
69619;Laerm;57653;51.434;5.984;2024-02-26T00:50:30;30.87;29.48;36.89;;
69619;Laerm;57653;51.434;5.984;2024-02-26T00:50:40;33.36;30.00;49.72;;
69619;Laerm;57653;51.434;5.984;2024-02-26T00:50:51;31.02;29.77;41.22;;
69619;Laerm;57653;51.434;5.984;2024-02-26T00:51:01;31.93;29.74;47.05;;
69619;Laerm;57653;51.434;5.984;2024-02-26T00:51:12;32.48;29.59;48.06;;
69619;Laerm;57653;51.434;5.984;2024-02-26T00:51:22;31.59;29.95;43.88;;
69619;Laerm;57653;51.434;5.984;2024-02-26T00:51:32;31.60;29.95;40.53;;
69619;Laerm;57653;51.434;5.984;2024-02-26T00:51:42;31.43;30.27;40.79;;
69619;Laerm;57653;51.434;5.984;2024-02-26T00:51:53;31.94;29.83;42.19;;
69619;Laerm;57653;51.434;5.984;2024-02-26T00:52:03;33.31;29.97;47.69;;
69619;Laerm;57653;51.434;5.984;2024-02-26T00:52:13;34.99;30.24;49.28;;
69619;Laerm;57653;51.434;5.984;2024-02-26T00:52:23;36.30;30.29;51.99;;
69619;Laerm;57653;51.434;5.984;2024-02-26T00:52:34;37.21;30.33;53.42;;
69619;Laerm;57653;51.434;5.984;2024-02-26T00:52:44;37.66;30.40;52.36;;
69619;Laerm;57653;51.434;5.984;2024-02-26T00:52:54;35.04;29.96;47.71;;
69619;Laerm;57653;51.434;5.984;2024-02-26T00:53:05;41.44;30.04;56.12;;
69619;Laerm;57653;51.434;5.984;2024-02-26T00:53:15;36.79;29.98;51.32;;
69619;Laerm;57653;51.434;5.984;2024-02-26T00:53:25;34.43;29.94;47.95;;
69619;Laerm;57653;51.434;5.984;2024-02-26T00:53:36;37.09;30.44;50.84;;
69619;Laerm;57653;51.434;5.984;2024-02-26T00:53:46;34.76;29.51;49.41;;
69619;Laerm;57653;51.434;5.984;2024-02-26T00:53:56;34.51;29.69;49.08;;
69619;Laerm;57653;51.434;5.984;2024-02-26T00:54:06;36.08;30.75;53.62;;
69619;Laerm;57653;51.434;5.984;2024-02-26T00:54:17;39.06;30.36;58.59;;
69619;Laerm;57653;51.434;5.984;2024-02-26T00:54:27;39.36;31.31;54.08;;
69619;Laerm;57653;51.434;5.984;2024-02-26T00:54:37;37.97;30.89;54.68;;
69619;Laerm;57653;51.434;5.984;2024-02-26T00:54:47;37.39;30.46;54.93;;
69619;Laerm;57653;51.434;5.984;2024-02-26T00:54:58;33.48;30.15;48.41;;
69619;Laerm;57653;51.434;5.984;2024-02-26T00:55:08;33.51;29.64;44.80;;
69619;Laerm;57653;51.434;5.984;2024-02-26T00:55:18;31.46;29.65;37.48;;
69619;Laerm;57653;51.434;5.984;2024-02-26T00:55:29;33.86;29.76;49.73;;
69619;Laerm;57653;51.434;5.984;2024-02-26T00:55:39;35.41;30.33;50.78;;
69619;Laerm;57653;51.434;5.984;2024-02-26T00:55:49;36.06;30.10;54.68;;
69619;Laerm;57653;51.434;5.984;2024-02-26T00:55:59;36.76;29.45;51.13;;
69619;Laerm;57653;51.434;5.984;2024-02-26T00:56:10;39.58;30.08;53.99;;
69619;Laerm;57653;51.434;5.984;2024-02-26T00:56:21;38.54;31.46;51.69;;
69619;Laerm;57653;51.434;5.984;2024-02-26T00:56:31;34.72;30.55;50.34;;
69619;Laerm;57653;51.434;5.984;2024-02-26T00:56:41;34.13;29.80;48.63;;
69619;Laerm;57653;51.434;5.984;2024-02-26T00:56:52;31.41;29.79;40.81;;
69619;Laerm;57653;51.434;5.984;2024-02-26T00:57:02;31.08;29.79;42.58;;
69619;Laerm;57653;51.434;5.984;2024-02-26T00:57:12;32.20;29.70;42.77;;
69619;Laerm;57653;51.434;5.984;2024-02-26T00:57:22;31.26;29.61;38.58;;
69619;Laerm;57653;51.434;5.984;2024-02-26T00:57:32;32.99;29.93;47.31;;
69619;Laerm;57653;51.434;5.984;2024-02-26T00:57:43;32.40;29.51;48.37;;
69619;Laerm;57653;51.434;5.984;2024-02-26T00:57:53;32.19;29.77;44.82;;
69619;Laerm;57653;51.434;5.984;2024-02-26T00:58:03;34.02;29.52;48.77;;
69619;Laerm;57653;51.434;5.984;2024-02-26T00:58:14;30.71;29.52;32.13;;
69619;Laerm;57653;51.434;5.984;2024-02-26T00:58:24;30.75;29.67;31.98;;
69619;Laerm;57653;51.434;5.984;2024-02-26T00:58:35;32.81;29.44;50.99;;
69619;Laerm;57653;51.434;5.984;2024-02-26T00:58:45;31.62;29.78;42.63;;